sensor_id;sensor_type;location;lat;lon;timestamp;pressure;altitude;pressure_sealevel;temperature;humidity
36454;BME280;22478;51.740;-1.314;2023-04-06T00:00:13;100156.33;;;5.28;100.00
36454;BME280;22478;51.740;-1.314;2023-04-06T00:02:40;100155.68;;;5.61;100.00
36454;BME280;22478;51.740;-1.314;2023-04-06T00:05:08;100157.43;;;5.47;100.00
36454;BME280;22478;51.740;-1.314;2023-04-06T00:07:35;100154.44;;;4.98;100.00
36454;BME280;22478;51.740;-1.314;2023-04-06T00:10:03;100151.46;;;4.93;100.00
36454;BME280;22478;51.740;-1.314;2023-04-06T00:12:31;100144.93;;;5.59;100.00
36454;BME280;22478;51.740;-1.314;2023-04-06T00:14:58;100140.59;;;5.02;100.00
36454;BME280;22478;51.740;-1.314;2023-04-06T00:17:26;100136.13;;;5.68;100.00
36454;BME280;22478;51.740;-1.314;2023-04-06T00:19:54;100139.49;;;5.55;100.00
36454;BME280;22478;51.740;-1.314;2023-04-06T00:22:21;100134.35;;;5.60;100.00
36454;BME280;22478;51.740;-1.314;2023-04-06T00:24:49;100132.94;;;5.05;100.00
36454;BME280;22478;51.740;-1.314;2023-04-06T00:27:16;100129.27;;;5.97;100.00
36454;BME280;22478;51.740;-1.314;2023-04-06T00:29:44;100125.36;;;6.92;100.00
36454;BME280;22478;51.740;-1.314;2023-04-06T00:32:11;100124.71;;;6.03;100.00
36454;BME280;22478;51.740;-1.314;2023-04-06T00:34:39;100121.68;;;5.20;100.00
36454;BME280;22478;51.740;-1.314;2023-04-06T00:37:05;100124.26;;;4.70;100.00
36454;BME280;22478;51.740;-1.314;2023-04-06T00:39:33;100115.07;;;6.97;100.00
36454;BME280;22478;51.740;-1.314;2023-04-06T00:42:09;100110.39;;;6.38;100.00
36454;BME280;22478;51.740;-1.314;2023-04-06T00:44:37;100111.36;;;5.07;100.00
36454;BME280;22478;51.740;-1.314;2023-04-06T00:47:05;100104.69;;;5.14;100.00
36454;BME280;22478;51.740;-1.314;2023-04-06T00:49:32;100103.60;;;4.66;100.00
36454;BME280;22478;51.740;-1.314;2023-04-06T00:52:00;100099.59;;;5.40;100.00
36454;BME280;22478;51.740;-1.314;2023-04-06T00:54:28;100101.80;;;4.10;100.00
36454;BME280;22478;51.740;-1.314;2023-04-06T00:56:55;100091.73;;;4.90;100.00
36454;BME280;22478;51.740;-1.314;2023-04-06T00:59:24;100090.25;;;5.68;100.00
36454;BME280;22478;51.740;-1.314;2023-04-06T01:01:51;100091.94;;;4.68;100.00
36454;BME280;22478;51.740;-1.314;2023-04-06T01:04:18;100089.45;;;5.56;100.00
36454;BME280;22478;51.740;-1.314;2023-04-06T01:06:45;100085.01;;;3.71;100.00
36454;BME280;22478;51.740;-1.314;2023-04-06T01:09:12;100081.00;;;4.92;100.00
36454;BME280;22478;51.740;-1.314;2023-04-06T01:11:40;100077.61;;;5.04;100.00
36454;BME280;22478;51.740;-1.314;2023-04-06T01:14:07;100073.52;;;5.77;100.00
36454;BME280;22478;51.740;-1.314;2023-04-06T01:16:35;100069.49;;;6.04;100.00
36454;BME280;22478;51.740;-1.314;2023-04-06T01:19:07;100067.98;;;5.35;100.00
36454;BME280;22478;51.740;-1.314;2023-04-06T01:21:34;100067.96;;;6.59;100.00
36454;BME280;22478;51.740;-1.314;2023-04-06T01:24:02;100065.64;;;7.33;100.00
36454;BME280;22478;51.740;-1.314;2023-04-06T01:26:29;100072.14;;;3.44;100.00
36454;BME280;22478;51.740;-1.314;2023-04-06T01:28:57;100063.67;;;6.01;100.00
36454;BME280;22478;51.740;-1.314;2023-04-06T01:31:25;100059.88;;;5.30;100.00
36454;BME280;22478;51.740;-1.314;2023-04-06T01:33:52;100053.76;;;4.42;100.00
36454;BME280;22478;51.740;-1.314;2023-04-06T01:36:19;100055.80;;;6.51;100.00
36454;BME280;22478;51.740;-1.314;2023-04-06T01:38:47;100051.85;;;4.01;100.00
36454;BME280;22478;51.740;-1.314;2023-04-06T01:41:14;100048.81;;;5.52;100.00
36454;BME280;22478;51.740;-1.314;2023-04-06T01:43:41;100045.06;;;4.04;100.00
36454;BME280;22478;51.740;-1.314;2023-04-06T01:46:09;100043.77;;;4.97;100.00
36454;BME280;22478;51.740;-1.314;2023-04-06T01:48:36;100037.92;;;5.73;100.00
36454;BME280;22478;51.740;-1.314;2023-04-06T01:51:04;100035.66;;;5.83;100.00
36454;BME280;22478;51.740;-1.314;2023-04-06T01:53:31;100026.05;;;7.37;100.00
36454;BME280;22478;51.740;-1.314;2023-04-06T01:55:59;100025.01;;;6.52;100.00
36454;BME280;22478;51.740;-1.314;2023-04-06T01:58:25;100022.16;;;6.73;100.00
36454;BME280;22478;51.740;-1.314;2023-04-06T02:00:53;100011.43;;;7.99;100.00
36454;BME280;22478;51.740;-1.314;2023-04-06T02:03:19;100013.85;;;6.42;100.00
36454;BME280;22478;51.740;-1.314;2023-04-06T02:05:47;100008.55;;;6.94;100.00
36454;BME280;22478;51.740;-1.314;2023-04-06T02:08:14;100004.50;;;7.81;100.00
36454;BME280;22478;51.740;-1.314;2023-04-06T02:10:41;100000.77;;;6.13;100.00
36454;BME280;22478;51.740;-1.314;2023-04-06T02:13:09;100005.13;;;5.17;100.00
36454;BME280;22478;51.740;-1.314;2023-04-06T02:15:36;99992.98;;;8.34;100.00
36454;BME280;22478;51.740;-1.314;2023-04-06T02:18:04;99992.24;;;7.92;100.00
36454;BME280;22478;51.740;-1.314;2023-04-06T02:20:31;99995.59;;;7.08;100.00
36454;BME280;22478;51.740;-1.314;2023-04-06T02:22:59;99995.60;;;7.64;100.00
36454;BME280;22478;51.740;-1.314;2023-04-06T02:25:27;99996.06;;;6.28;100.00
36454;BME280;22478;51.740;-1.314;2023-04-06T02:27:54;99996.94;;;6.01;100.00
36454;BME280;22478;51.740;-1.314;2023-04-06T02:30:21;99985.77;;;8.17;100.00
36454;BME280;22478;51.740;-1.314;2023-04-06T02:32:48;99984.53;;;6.74;100.00
36454;BME280;22478;51.740;-1.314;2023-04-06T02:35:15;99989.91;;;6.33;100.00
36454;BME280;22478;51.740;-1.314;2023-04-06T02:37:42;99990.22;;;5.74;100.00
36454;BME280;22478;51.740;-1.314;2023-04-06T02:40:10;99990.52;;;4.84;100.00
36454;BME280;22478;51.740;-1.314;2023-04-06T02:42:37;99980.05;;;7.51;100.00
36454;BME280;22478;51.740;-1.314;2023-04-06T02:45:05;99988.66;;;5.63;100.00
36454;BME280;22478;51.740;-1.314;2023-04-06T02:47:33;99979.11;;;7.63;100.00
36454;BME280;22478;51.740;-1.314;2023-04-06T02:50:01;99977.10;;;6.94;100.00
36454;BME280;22478;51.740;-1.314;2023-04-06T02:52:28;99977.52;;;6.14;100.00
36454;BME280;22478;51.740;-1.314;2023-04-06T02:54:55;99968.68;;;7.18;100.00
36454;BME280;22478;51.740;-1.314;2023-04-06T02:57:22;99973.08;;;4.51;100.00
36454;BME280;22478;51.740;-1.314;2023-04-06T02:59:50;99965.96;;;7.25;100.00
36454;BME280;22478;51.740;-1.314;2023-04-06T03:02:16;99961.53;;;7.09;100.00
36454;BME280;22478;51.740;-1.314;2023-04-06T03:04:44;99969.97;;;4.68;100.00
36454;BME280;22478;51.740;-1.314;2023-04-06T03:07:11;99967.90;;;4.84;100.00
36454;BME280;22478;51.740;-1.314;2023-04-06T03:09:39;99969.67;;;3.45;100.00
36454;BME280;22478;51.740;-1.314;2023-04-06T03:12:07;99962.66;;;4.61;100.00
36454;BME280;22478;51.740;-1.314;2023-04-06T03:14:34;99973.79;;;3.87;100.00
36454;BME280;22478;51.740;-1.314;2023-04-06T03:17:01;99976.24;;;1.70;100.00
36454;BME280;22478;51.740;-1.314;2023-04-06T03:19:29;99967.32;;;5.94;100.00
36454;BME280;22478;51.740;-1.314;2023-04-06T03:21:56;99962.26;;;5.56;100.00
36454;BME280;22478;51.740;-1.314;2023-04-06T03:24:23;99984.98;;;1.84;100.00
36454;BME280;22478;51.740;-1.314;2023-04-06T03:26:51;99977.76;;;3.52;100.00
36454;BME280;22478;51.740;-1.314;2023-04-06T03:29:18;99987.20;;;2.33;100.00
36454;BME280;22478;51.740;-1.314;2023-04-06T03:31:45;99968.38;;;4.71;100.00
36454;BME280;22478;51.740;-1.314;2023-04-06T03:34:13;99960.23;;;4.70;100.00
36454;BME280;22478;51.740;-1.314;2023-04-06T03:36:41;99959.25;;;3.51;100.00
36454;BME280;22478;51.740;-1.314;2023-04-06T03:39:08;99944.86;;;4.59;100.00
36454;BME280;22478;51.740;-1.314;2023-04-06T03:41:36;99948.00;;;3.99;100.00
36454;BME280;22478;51.740;-1.314;2023-04-06T03:44:04;99943.23;;;4.23;100.00
36454;BME280;22478;51.740;-1.314;2023-04-06T03:46:32;99934.52;;;4.37;100.00
36454;BME280;22478;51.740;-1.314;2023-04-06T03:48:59;99934.66;;;4.18;100.00
36454;BME280;22478;51.740;-1.314;2023-04-06T03:51:27;99925.15;;;6.86;100.00
36454;BME280;22478;51.740;-1.314;2023-04-06T03:53:54;99917.27;;;7.74;100.00
36454;BME280;22478;51.740;-1.314;2023-04-06T03:56:21;99932.61;;;2.79;100.00
36454;BME280;22478;51.740;-1.314;2023-04-06T03:58:49;99931.15;;;3.51;100.00
36454;BME280;22478;51.740;-1.314;2023-04-06T04:01:16;99922.64;;;3.90;100.00
36454;BME280;22478;51.740;-1.314;2023-04-06T04:03:43;99922.42;;;4.33;100.00
36454;BME280;22478;51.740;-1.314;2023-04-06T04:06:10;99920.73;;;3.47;100.00
36454;BME280;22478;51.740;-1.314;2023-04-06T04:08:39;99913.45;;;4.29;100.00
36454;BME280;22478;51.740;-1.314;2023-04-06T04:11:06;99908.39;;;6.13;100.00
36454;BME280;22478;51.740;-1.314;2023-04-06T04:13:33;99910.35;;;5.61;100.00
36454;BME280;22478;51.740;-1.314;2023-04-06T04:16:00;99903.23;;;5.97;100.00
36454;BME280;22478;51.740;-1.314;2023-04-06T04:18:27;99902.04;;;5.65;100.00
36454;BME280;22478;51.740;-1.314;2023-04-06T04:20:55;99893.97;;;6.83;100.00
36454;BME280;22478;51.740;-1.314;2023-04-06T04:23:22;99896.00;;;6.69;100.00
36454;BME280;22478;51.740;-1.314;2023-04-06T04:25:49;99890.26;;;7.32;100.00
36454;BME280;22478;51.740;-1.314;2023-04-06T04:28:17;99893.19;;;7.39;100.00
36454;BME280;22478;51.740;-1.314;2023-04-06T04:30:43;99904.05;;;3.64;100.00
36454;BME280;22478;51.740;-1.314;2023-04-06T04:33:11;99887.06;;;6.82;100.00
36454;BME280;22478;51.740;-1.314;2023-04-06T04:35:38;99888.52;;;6.85;100.00
36454;BME280;22478;51.740;-1.314;2023-04-06T04:38:06;99897.76;;;3.88;100.00
36454;BME280;22478;51.740;-1.314;2023-04-06T04:40:33;99891.93;;;5.71;100.00
36454;BME280;22478;51.740;-1.314;2023-04-06T04:43:01;99886.56;;;6.16;100.00
36454;BME280;22478;51.740;-1.314;2023-04-06T04:45:28;99877.14;;;6.33;100.00
36454;BME280;22478;51.740;-1.314;2023-04-06T04:47:55;99870.92;;;7.56;100.00
36454;BME280;22478;51.740;-1.314;2023-04-06T04:50:22;99887.25;;;5.55;100.00
36454;BME280;22478;51.740;-1.314;2023-04-06T04:52:51;99889.00;;;5.12;100.00
36454;BME280;22478;51.740;-1.314;2023-04-06T04:55:18;99883.32;;;4.99;100.00
36454;BME280;22478;51.740;-1.314;2023-04-06T04:57:45;99868.85;;;7.95;100.00
36454;BME280;22478;51.740;-1.314;2023-04-06T05:00:13;99880.58;;;5.56;100.00
36454;BME280;22478;51.740;-1.314;2023-04-06T05:02:40;99892.00;;;4.42;100.00
36454;BME280;22478;51.740;-1.314;2023-04-06T05:05:08;99903.43;;;3.01;100.00
36454;BME280;22478;51.740;-1.314;2023-04-06T05:07:35;99906.04;;;5.99;100.00
36454;BME280;22478;51.740;-1.314;2023-04-06T05:10:03;99902.86;;;5.24;100.00
36454;BME280;22478;51.740;-1.314;2023-04-06T05:12:31;99900.02;;;7.67;100.00
36454;BME280;22478;51.740;-1.314;2023-04-06T05:14:58;99913.90;;;4.83;100.00
36454;BME280;22478;51.740;-1.314;2023-04-06T05:17:25;99910.48;;;6.44;100.00
36454;BME280;22478;51.740;-1.314;2023-04-06T05:19:52;99908.55;;;5.05;100.00
36454;BME280;22478;51.740;-1.314;2023-04-06T05:22:20;99908.04;;;4.91;100.00
36454;BME280;22478;51.740;-1.314;2023-04-06T05:24:47;99905.65;;;3.60;100.00
36454;BME280;22478;51.740;-1.314;2023-04-06T05:27:15;99919.69;;;1.72;100.00
36454;BME280;22478;51.740;-1.314;2023-04-06T05:29:42;99906.99;;;5.18;100.00
36454;BME280;22478;51.740;-1.314;2023-04-06T05:32:09;99902.67;;;5.95;100.00
36454;BME280;22478;51.740;-1.314;2023-04-06T05:34:37;99897.68;;;2.98;100.00
36454;BME280;22478;51.740;-1.314;2023-04-06T05:37:04;99895.53;;;4.55;100.00
36454;BME280;22478;51.740;-1.314;2023-04-06T05:39:31;99904.54;;;1.80;100.00
36454;BME280;22478;51.740;-1.314;2023-04-06T05:42:03;99897.02;;;3.33;100.00
36454;BME280;22478;51.740;-1.314;2023-04-06T05:44:30;99893.07;;;4.56;100.00
36454;BME280;22478;51.740;-1.314;2023-04-06T05:46:58;99893.94;;;4.63;100.00
36454;BME280;22478;51.740;-1.314;2023-04-06T05:49:25;99892.84;;;4.69;100.00
36454;BME280;22478;51.740;-1.314;2023-04-06T05:51:52;99893.08;;;4.51;100.00
36454;BME280;22478;51.740;-1.314;2023-04-06T05:54:19;99885.15;;;4.59;100.00
36454;BME280;22478;51.740;-1.314;2023-04-06T05:56:47;99892.24;;;1.45;100.00
36454;BME280;22478;51.740;-1.314;2023-04-06T05:59:15;99897.60;;;2.10;100.00
36454;BME280;22478;51.740;-1.314;2023-04-06T06:01:42;99885.25;;;6.11;100.00
36454;BME280;22478;51.740;-1.314;2023-04-06T06:04:09;99889.56;;;3.39;100.00
36454;BME280;22478;51.740;-1.314;2023-04-06T06:06:37;99907.40;;;2.38;100.00
36454;BME280;22478;51.740;-1.314;2023-04-06T06:09:04;99907.31;;;3.09;100.00
36454;BME280;22478;51.740;-1.314;2023-04-06T06:11:32;99903.65;;;3.66;100.00
36454;BME280;22478;51.740;-1.314;2023-04-06T06:14:00;99916.86;;;3.48;100.00
36454;BME280;22478;51.740;-1.314;2023-04-06T06:16:27;99934.06;;;1.71;100.00
36454;BME280;22478;51.740;-1.314;2023-04-06T06:18:54;99918.31;;;2.36;100.00
36454;BME280;22478;51.740;-1.314;2023-04-06T06:21:21;99915.07;;;3.81;100.00
36454;BME280;22478;51.740;-1.314;2023-04-06T06:23:49;99910.32;;;4.31;100.00
36454;BME280;22478;51.740;-1.314;2023-04-06T06:26:16;99913.12;;;4.01;100.00
36454;BME280;22478;51.740;-1.314;2023-04-06T06:28:44;99918.11;;;3.61;100.00
36454;BME280;22478;51.740;-1.314;2023-04-06T06:31:11;99925.70;;;1.36;100.00
36454;BME280;22478;51.740;-1.314;2023-04-06T06:33:39;99920.20;;;1.94;100.00
36454;BME280;22478;51.740;-1.314;2023-04-06T06:36:07;99915.09;;;4.31;100.00
36454;BME280;22478;51.740;-1.314;2023-04-06T06:38:34;99925.91;;;2.62;100.00
36454;BME280;22478;51.740;-1.314;2023-04-06T06:41:02;99926.59;;;4.24;100.00
36454;BME280;22478;51.740;-1.314;2023-04-06T06:43:29;99926.07;;;4.80;100.00
36454;BME280;22478;51.740;-1.314;2023-04-06T06:45:56;99931.41;;;3.17;100.00
36454;BME280;22478;51.740;-1.314;2023-04-06T06:48:24;99927.31;;;3.86;100.00
36454;BME280;22478;51.740;-1.314;2023-04-06T06:50:52;99930.01;;;5.39;100.00
36454;BME280;22478;51.740;-1.314;2023-04-06T06:53:19;99945.15;;;2.45;100.00
36454;BME280;22478;51.740;-1.314;2023-04-06T06:55:46;99953.30;;;1.90;100.00
36454;BME280;22478;51.740;-1.314;2023-04-06T06:58:13;99942.68;;;2.28;100.00
36454;BME280;22478;51.740;-1.314;2023-04-06T07:00:41;99944.84;;;3.13;100.00
36454;BME280;22478;51.740;-1.314;2023-04-06T07:03:08;99942.90;;;2.89;100.00
36454;BME280;22478;51.740;-1.314;2023-04-06T07:05:35;99949.28;;;2.99;100.00
36454;BME280;22478;51.740;-1.314;2023-04-06T07:08:03;99943.13;;;4.22;100.00
36454;BME280;22478;51.740;-1.314;2023-04-06T07:10:30;99952.37;;;2.99;100.00
36454;BME280;22478;51.740;-1.314;2023-04-06T07:12:57;99957.41;;;3.75;100.00
36454;BME280;22478;51.740;-1.314;2023-04-06T07:15:24;99950.70;;;4.58;100.00
36454;BME280;22478;51.740;-1.314;2023-04-06T07:17:51;99948.45;;;3.96;100.00
36454;BME280;22478;51.740;-1.314;2023-04-06T07:20:19;99956.36;;;2.79;100.00
36454;BME280;22478;51.740;-1.314;2023-04-06T07:22:47;99951.46;;;5.11;100.00
36454;BME280;22478;51.740;-1.314;2023-04-06T07:25:14;99960.62;;;2.43;100.00
36454;BME280;22478;51.740;-1.314;2023-04-06T07:27:41;99959.41;;;2.25;100.00
36454;BME280;22478;51.740;-1.314;2023-04-06T07:30:09;99966.72;;;3.32;100.00
36454;BME280;22478;51.740;-1.314;2023-04-06T07:32:36;99981.28;;;1.58;100.00
36454;BME280;22478;51.740;-1.314;2023-04-06T07:35:05;99968.95;;;4.31;100.00
36454;BME280;22478;51.740;-1.314;2023-04-06T07:37:32;99972.29;;;3.76;100.00
36454;BME280;22478;51.740;-1.314;2023-04-06T07:39:59;99972.45;;;2.48;100.00
36454;BME280;22478;51.740;-1.314;2023-04-06T07:42:27;99974.89;;;2.55;100.00
36454;BME280;22478;51.740;-1.314;2023-04-06T07:44:54;99961.49;;;2.44;100.00
36454;BME280;22478;51.740;-1.314;2023-04-06T07:47:23;99956.89;;;4.00;100.00
36454;BME280;22478;51.740;-1.314;2023-04-06T07:49:50;99953.80;;;5.49;100.00
36454;BME280;22478;51.740;-1.314;2023-04-06T07:52:17;99952.23;;;4.03;100.00
36454;BME280;22478;51.740;-1.314;2023-04-06T07:54:45;99949.46;;;5.04;100.00
36454;BME280;22478;51.740;-1.314;2023-04-06T07:57:12;99952.65;;;4.86;100.00
36454;BME280;22478;51.740;-1.314;2023-04-06T07:59:39;99952.58;;;5.51;100.00
36454;BME280;22478;51.740;-1.314;2023-04-06T08:02:07;99968.36;;;2.32;100.00
36454;BME280;22478;51.740;-1.314;2023-04-06T08:04:35;99958.25;;;5.86;100.00
36454;BME280;22478;51.740;-1.314;2023-04-06T08:07:03;99969.90;;;2.34;100.00
36454;BME280;22478;51.740;-1.314;2023-04-06T08:09:30;99978.58;;;2.06;100.00
36454;BME280;22478;51.740;-1.314;2023-04-06T08:11:57;99984.74;;;1.83;100.00
36454;BME280;22478;51.740;-1.314;2023-04-06T08:14:25;99975.48;;;3.80;100.00
36454;BME280;22478;51.740;-1.314;2023-04-06T08:16:52;99969.47;;;4.45;100.00
36454;BME280;22478;51.740;-1.314;2023-04-06T08:19:20;99971.33;;;4.72;100.00
36454;BME280;22478;51.740;-1.314;2023-04-06T08:21:47;99967.79;;;3.06;100.00
36454;BME280;22478;51.740;-1.314;2023-04-06T08:24:14;99959.60;;;3.59;100.00
36454;BME280;22478;51.740;-1.314;2023-04-06T08:26:42;99961.57;;;5.09;100.00
36454;BME280;22478;51.740;-1.314;2023-04-06T08:29:09;99964.65;;;5.23;100.00
36454;BME280;22478;51.740;-1.314;2023-04-06T08:31:37;99976.57;;;3.13;100.00
36454;BME280;22478;51.740;-1.314;2023-04-06T08:34:04;99973.14;;;4.18;100.00
36454;BME280;22478;51.740;-1.314;2023-04-06T08:37:22;99985.47;;;0.67;100.00
36454;BME280;22478;51.740;-1.314;2023-04-06T08:39:50;99979.23;;;3.10;100.00
36454;BME280;22478;51.740;-1.314;2023-04-06T08:42:20;99969.65;;;4.42;100.00
36454;BME280;22478;51.740;-1.314;2023-04-06T08:44:49;99973.01;;;3.98;100.00
36454;BME280;22478;51.740;-1.314;2023-04-06T08:47:16;99974.10;;;3.46;100.00
36454;BME280;22478;51.740;-1.314;2023-04-06T08:49:44;99986.81;;;2.73;100.00
36454;BME280;22478;51.740;-1.314;2023-04-06T08:52:13;99988.56;;;3.24;100.00
36454;BME280;22478;51.740;-1.314;2023-04-06T08:54:42;99984.79;;;3.07;100.00
36454;BME280;22478;51.740;-1.314;2023-04-06T08:57:09;99985.34;;;5.24;100.00
36454;BME280;22478;51.740;-1.314;2023-04-06T08:59:37;99998.65;;;2.78;100.00
36454;BME280;22478;51.740;-1.314;2023-04-06T09:02:06;99993.42;;;5.86;100.00
36454;BME280;22478;51.740;-1.314;2023-04-06T09:04:35;99989.57;;;5.95;100.00
36454;BME280;22478;51.740;-1.314;2023-04-06T09:07:03;99998.00;;;4.63;100.00
36454;BME280;22478;51.740;-1.314;2023-04-06T09:09:30;100002.97;;;3.34;100.00
36454;BME280;22478;51.740;-1.314;2023-04-06T09:11:58;100006.22;;;3.45;100.00
36454;BME280;22478;51.740;-1.314;2023-04-06T09:14:41;100002.37;;;5.13;100.00
36454;BME280;22478;51.740;-1.314;2023-04-06T09:17:08;100006.54;;;4.62;100.00
36454;BME280;22478;51.740;-1.314;2023-04-06T09:19:45;100007.06;;;3.75;100.00
36454;BME280;22478;51.740;-1.314;2023-04-06T09:22:12;100004.89;;;4.97;100.00
36454;BME280;22478;51.740;-1.314;2023-04-06T09:24:41;100013.66;;;2.97;100.00
36454;BME280;22478;51.740;-1.314;2023-04-06T09:27:09;100011.94;;;3.08;100.00
36454;BME280;22478;51.740;-1.314;2023-04-06T09:29:36;100002.42;;;4.55;100.00
36454;BME280;22478;51.740;-1.314;2023-04-06T09:32:05;100005.15;;;4.31;100.00
36454;BME280;22478;51.740;-1.314;2023-04-06T09:34:32;100009.14;;;5.44;100.00
36454;BME280;22478;51.740;-1.314;2023-04-06T09:36:59;100015.69;;;4.05;100.00
36454;BME280;22478;51.740;-1.314;2023-04-06T09:39:26;100006.05;;;4.96;100.00
36454;BME280;22478;51.740;-1.314;2023-04-06T09:41:54;100011.58;;;3.46;100.00
36454;BME280;22478;51.740;-1.314;2023-04-06T09:44:21;100009.66;;;3.97;100.00
36454;BME280;22478;51.740;-1.314;2023-04-06T09:46:49;100007.64;;;4.65;100.00
36454;BME280;22478;51.740;-1.314;2023-04-06T09:49:17;100006.84;;;3.78;100.00
36454;BME280;22478;51.740;-1.314;2023-04-06T09:51:47;100010.55;;;5.32;100.00
36454;BME280;22478;51.740;-1.314;2023-04-06T09:54:18;100007.04;;;6.09;100.00
36454;BME280;22478;51.740;-1.314;2023-04-06T09:56:49;100000.76;;;8.26;100.00
36454;BME280;22478;51.740;-1.314;2023-04-06T09:59:23;100011.08;;;5.50;100.00
36454;BME280;22478;51.740;-1.314;2023-04-06T10:01:56;100011.02;;;6.77;100.00
36454;BME280;22478;51.740;-1.314;2023-04-06T10:04:33;100012.81;;;6.01;100.00
36454;BME280;22478;51.740;-1.314;2023-04-06T10:07:04;100016.98;;;6.72;100.00
36454;BME280;22478;51.740;-1.314;2023-04-06T10:09:34;100004.31;;;7.62;100.00
36454;BME280;22478;51.740;-1.314;2023-04-06T10:12:04;100009.33;;;7.59;100.00
36454;BME280;22478;51.740;-1.314;2023-04-06T10:14:33;100016.13;;;7.07;100.00
36454;BME280;22478;51.740;-1.314;2023-04-06T10:17:02;100023.61;;;4.61;100.00
36454;BME280;22478;51.740;-1.314;2023-04-06T10:19:36;100030.53;;;3.52;100.00
36454;BME280;22478;51.740;-1.314;2023-04-06T10:22:07;100028.71;;;3.93;100.00
36454;BME280;22478;51.740;-1.314;2023-04-06T10:24:35;100027.92;;;5.68;100.00
36454;BME280;22478;51.740;-1.314;2023-04-06T10:27:04;100014.55;;;9.97;100.00
36454;BME280;22478;51.740;-1.314;2023-04-06T10:29:43;100027.00;;;5.99;100.00
36454;BME280;22478;51.740;-1.314;2023-04-06T10:32:11;100033.12;;;7.19;100.00
36454;BME280;22478;51.740;-1.314;2023-04-06T10:34:38;100035.51;;;5.12;100.00
36454;BME280;22478;51.740;-1.314;2023-04-06T10:37:21;100032.88;;;6.71;100.00
36454;BME280;22478;51.740;-1.314;2023-04-06T10:39:52;100022.25;;;9.06;100.00
36454;BME280;22478;51.740;-1.314;2023-04-06T10:42:23;100021.07;;;7.97;100.00
36454;BME280;22478;51.740;-1.314;2023-04-06T10:44:51;100013.91;;;11.25;100.00
36454;BME280;22478;51.740;-1.314;2023-04-06T10:47:18;100016.23;;;8.91;100.00
36454;BME280;22478;51.740;-1.314;2023-04-06T10:49:45;100008.89;;;11.97;93.92
36454;BME280;22478;51.740;-1.314;2023-04-06T10:52:13;100005.86;;;14.54;73.93
36454;BME280;22478;51.740;-1.314;2023-04-06T10:54:42;100025.02;;;7.08;100.00
36454;BME280;22478;51.740;-1.314;2023-04-06T10:57:10;100026.49;;;9.43;100.00
36454;BME280;22478;51.740;-1.314;2023-04-06T10:59:42;100035.00;;;4.92;100.00
36454;BME280;22478;51.740;-1.314;2023-04-06T11:02:19;100040.47;;;5.24;100.00
36454;BME280;22478;51.740;-1.314;2023-04-06T11:04:54;100042.35;;;5.35;100.00
36454;BME280;22478;51.740;-1.314;2023-04-06T11:07:23;100031.78;;;9.74;100.00
36454;BME280;22478;51.740;-1.314;2023-04-06T11:09:50;100024.36;;;10.65;100.00
36454;BME280;22478;51.740;-1.314;2023-04-06T11:12:22;100026.18;;;8.63;100.00
36454;BME280;22478;51.740;-1.314;2023-04-06T11:14:54;100017.15;;;12.76;83.75
36454;BME280;22478;51.740;-1.314;2023-04-06T11:17:26;100036.53;;;7.52;100.00
36454;BME280;22478;51.740;-1.314;2023-04-06T11:19:53;100032.15;;;9.92;98.60
36454;BME280;22478;51.740;-1.314;2023-04-06T11:22:21;100030.50;;;9.53;100.00
36454;BME280;22478;51.740;-1.314;2023-04-06T11:24:48;100031.56;;;10.66;85.51
36454;BME280;22478;51.740;-1.314;2023-04-06T11:27:15;100031.73;;;10.38;90.80
36454;BME280;22478;51.740;-1.314;2023-04-06T11:29:43;100033.80;;;10.62;90.26
36454;BME280;22478;51.740;-1.314;2023-04-06T11:32:11;100052.60;;;6.69;100.00
36454;BME280;22478;51.740;-1.314;2023-04-06T11:34:47;100059.65;;;6.33;100.00
36454;BME280;22478;51.740;-1.314;2023-04-06T11:37:15;100062.39;;;7.17;100.00
36454;BME280;22478;51.740;-1.314;2023-04-06T11:39:47;100054.84;;;5.99;100.00
36454;BME280;22478;51.740;-1.314;2023-04-06T11:42:22;100061.38;;;6.07;100.00
36454;BME280;22478;51.740;-1.314;2023-04-06T11:44:53;100057.20;;;7.03;100.00
36454;BME280;22478;51.740;-1.314;2023-04-06T11:47:20;100060.89;;;6.18;100.00
36454;BME280;22478;51.740;-1.314;2023-04-06T11:49:53;100049.70;;;8.50;100.00
36454;BME280;22478;51.740;-1.314;2023-04-06T11:52:22;100052.06;;;6.88;100.00
36454;BME280;22478;51.740;-1.314;2023-04-06T11:54:51;100046.51;;;7.93;100.00
36454;BME280;22478;51.740;-1.314;2023-04-06T11:57:19;100040.95;;;8.72;100.00
36454;BME280;22478;51.740;-1.314;2023-04-06T11:59:47;100035.61;;;10.20;99.46
36454;BME280;22478;51.740;-1.314;2023-04-06T12:02:14;100041.26;;;8.77;100.00
36454;BME280;22478;51.740;-1.314;2023-04-06T12:04:41;100044.79;;;9.72;99.10
36454;BME280;22478;51.740;-1.314;2023-04-06T12:07:08;100039.63;;;10.92;85.58
36454;BME280;22478;51.740;-1.314;2023-04-06T12:09:36;100039.24;;;12.53;72.34
36454;BME280;22478;51.740;-1.314;2023-04-06T12:12:03;100051.99;;;9.65;80.91
36454;BME280;22478;51.740;-1.314;2023-04-06T12:14:31;100054.19;;;8.30;82.22
36454;BME280;22478;51.740;-1.314;2023-04-06T12:16:58;100049.03;;;10.00;82.02
36454;BME280;22478;51.740;-1.314;2023-04-06T12:19:25;100057.84;;;7.92;100.00
36454;BME280;22478;51.740;-1.314;2023-04-06T12:21:52;100067.41;;;6.63;100.00
36454;BME280;22478;51.740;-1.314;2023-04-06T12:24:20;100065.41;;;5.88;100.00
36454;BME280;22478;51.740;-1.314;2023-04-06T12:26:46;100066.10;;;6.22;100.00
36454;BME280;22478;51.740;-1.314;2023-04-06T12:29:14;100064.23;;;5.62;100.00
36454;BME280;22478;51.740;-1.314;2023-04-06T12:31:41;100068.71;;;5.65;100.00
36454;BME280;22478;51.740;-1.314;2023-04-06T12:34:09;100069.16;;;5.68;100.00
36454;BME280;22478;51.740;-1.314;2023-04-06T12:36:37;100063.64;;;7.24;100.00
36454;BME280;22478;51.740;-1.314;2023-04-06T12:39:05;100057.05;;;7.08;100.00
36454;BME280;22478;51.740;-1.314;2023-04-06T12:41:32;100051.36;;;9.39;98.08
36454;BME280;22478;51.740;-1.314;2023-04-06T12:43:59;100059.23;;;6.15;100.00
36454;BME280;22478;51.740;-1.314;2023-04-06T12:46:26;100060.84;;;6.67;100.00
36454;BME280;22478;51.740;-1.314;2023-04-06T12:48:53;100059.78;;;7.54;100.00